createdAt,value
2023-04-18T00:01:46.664Z,9.52
2023-04-18T00:04:14.765Z,9.07
2023-04-18T00:06:42.357Z,8.02
2023-04-18T00:09:09.519Z,8.50
2023-04-18T00:11:36.785Z,7.88
2023-04-18T00:14:04.493Z,8.73
2023-04-18T00:16:32.581Z,8.43
2023-04-18T00:18:59.914Z,7.82
2023-04-18T00:21:27.096Z,7.97
2023-04-18T00:23:54.232Z,8.70
2023-04-18T00:26:21.367Z,8.23
2023-04-18T00:28:49.223Z,9.13
2023-04-18T00:31:18.036Z,8.38
2023-04-18T00:33:45.188Z,8.35
2023-04-18T00:36:12.339Z,8.80
2023-04-18T00:38:41.921Z,8.32
2023-04-18T00:41:09.045Z,8.43
2023-04-18T00:43:37.256Z,9.13
2023-04-18T00:46:04.547Z,9.45
2023-04-18T00:48:31.915Z,10.23
2023-04-18T00:51:00.500Z,10.65
2023-04-18T00:53:28.713Z,10.93
2023-04-18T00:55:56.030Z,9.55
2023-04-18T00:58:24.366Z,7.95
2023-04-18T01:00:52.327Z,7.80
2023-04-18T01:03:20.013Z,8.13
2023-04-18T01:05:47.374Z,8.48
2023-04-18T01:08:14.849Z,8.00
2023-04-18T01:10:42.449Z,8.15
2023-04-18T01:13:17.199Z,8.25
2023-04-18T01:15:47.092Z,7.70
2023-04-18T01:18:20.913Z,8.32
2023-04-18T01:20:50.359Z,8.57
2023-04-18T01:23:21.422Z,8.82
2023-04-18T01:25:51.666Z,8.82
2023-04-18T01:28:21.605Z,9.25
2023-04-18T01:30:49.384Z,8.40
2023-04-18T01:33:16.687Z,9.00
2023-04-18T01:35:46.893Z,9.35
2023-04-18T01:38:14.027Z,10.82
2023-04-18T01:40:41.162Z,9.80
2023-04-18T01:43:08.290Z,10.48
2023-04-18T01:45:38.205Z,10.38
2023-04-18T01:48:05.673Z,10.35
2023-04-18T01:50:33.687Z,11.00
2023-04-18T01:53:00.980Z,9.98
2023-04-18T01:55:28.266Z,9.70
2023-04-18T01:57:55.555Z,9.38
2023-04-18T02:00:22.876Z,9.50
2023-04-18T02:02:50.607Z,9.82
2023-04-18T02:05:17.986Z,9.68
2023-04-18T02:07:45.622Z,9.65
2023-04-18T02:10:12.776Z,9.20
2023-04-18T02:12:40.691Z,9.15
2023-04-18T02:15:09.295Z,9.30
2023-04-18T02:17:38.066Z,10.20
2023-04-18T02:20:08.351Z,9.60
2023-04-18T02:22:38.248Z,9.70
2023-04-18T02:25:05.899Z,9.88
2023-04-18T02:27:34.368Z,9.23
2023-04-18T02:30:02.629Z,9.63
2023-04-18T02:32:34.315Z,9.13
2023-04-18T02:35:01.926Z,11.00
2023-04-18T02:37:32.620Z,9.52
2023-04-18T02:39:59.748Z,9.57
2023-04-18T02:42:31.727Z,10.18
2023-04-18T02:45:00.033Z,9.40
2023-04-18T02:47:31.733Z,10.88
2023-04-18T02:50:04.246Z,9.65
2023-04-18T02:52:32.414Z,10.83
2023-04-18T02:54:59.811Z,9.63
2023-04-18T02:57:31.827Z,10.18
2023-04-18T03:00:23.176Z,9.18
2023-04-18T03:03:26.083Z,9.27
2023-04-18T03:06:18.530Z,9.43
2023-04-18T03:08:46.084Z,10.43
2023-04-18T03:11:14.008Z,9.55
2023-04-18T03:13:41.193Z,9.48
2023-04-18T03:16:08.755Z,9.77
2023-04-18T03:18:36.432Z,9.52
2023-04-18T03:21:03.843Z,9.30
2023-04-18T03:23:33.113Z,9.18
2023-04-18T03:26:03.098Z,9.75
2023-04-18T03:28:32.458Z,9.57
2023-04-18T03:31:00.157Z,10.40
2023-04-18T03:33:28.952Z,9.13
2023-04-18T03:36:06.304Z,10.15
2023-04-18T03:38:33.819Z,10.05
2023-04-18T03:41:01.228Z,10.13
2023-04-18T03:43:33.832Z,10.40
2023-04-18T03:46:02.272Z,11.30
2023-04-18T03:48:29.865Z,10.68
2023-04-18T03:51:01.651Z,10.40
2023-04-18T03:53:29.188Z,11.35
2023-04-18T03:55:56.627Z,11.10
2023-04-18T03:58:31.412Z,11.50
2023-04-18T04:01:01.194Z,10.65
2023-04-18T04:03:30.428Z,11.38
2023-04-18T04:05:57.701Z,10.80
2023-04-18T04:08:26.984Z,9.70
2023-04-18T04:10:55.286Z,10.50
2023-04-18T04:13:23.674Z,11.65
2023-04-18T04:15:51.854Z,11.18
2023-04-18T04:18:19.100Z,10.55
2023-04-18T04:20:47.956Z,11.55
2023-04-18T04:23:38.161Z,10.90
2023-04-18T04:26:05.707Z,11.07
2023-04-18T04:28:43.000Z,10.32
2023-04-18T04:31:11.478Z,10.57
2023-04-18T04:33:41.138Z,10.48
2023-04-18T04:36:18.839Z,10.82
2023-04-18T04:38:47.742Z,9.23
2023-04-18T04:41:16.017Z,10.30
2023-04-18T04:43:43.523Z,10.43
2023-04-18T04:46:13.877Z,10.85
2023-04-18T04:48:43.357Z,10.75
2023-04-18T04:51:10.570Z,10.63
2023-04-18T04:53:38.008Z,12.23
2023-04-18T04:56:06.132Z,11.05
2023-04-18T04:58:34.489Z,11.20
2023-04-18T05:01:27.712Z,11.23
2023-04-18T05:03:55.091Z,11.95
2023-04-18T05:06:22.878Z,11.43
2023-04-18T05:08:51.152Z,12.25
2023-04-18T05:11:18.778Z,12.07
2023-04-18T05:13:45.953Z,11.73
2023-04-18T05:16:13.234Z,12.63
2023-04-18T05:18:41.517Z,13.10
2023-04-18T05:21:08.668Z,10.63
2023-04-18T05:23:37.255Z,10.90
2023-04-18T05:26:05.823Z,10.95
2023-04-18T05:28:33.287Z,10.73
2023-04-18T05:31:03.498Z,11.27
2023-04-18T05:33:31.828Z,11.40
2023-04-18T05:35:59.341Z,11.77
2023-04-18T05:38:26.592Z,11.55
2023-04-18T05:40:55.834Z,11.73
2023-04-18T05:43:23.594Z,10.90
2023-04-18T05:45:52.730Z,10.57
2023-04-18T05:48:21.502Z,11.30
2023-04-18T05:50:48.835Z,12.98
2023-04-18T05:53:16.045Z,12.32
2023-04-18T05:55:43.373Z,13.18
2023-04-18T05:58:10.660Z,13.55
2023-04-18T06:00:37.850Z,12.02
2023-04-18T06:03:05.835Z,14.30
2023-04-18T06:05:34.807Z,13.48
2023-04-18T06:08:02.089Z,14.27
2023-04-18T06:10:29.795Z,14.07
2023-04-18T06:12:56.996Z,13.85
2023-04-18T06:15:24.906Z,13.98
2023-04-18T06:17:52.195Z,14.75
2023-04-18T06:20:19.658Z,14.07
2023-04-18T06:22:46.850Z,14.50
2023-04-18T06:25:14.052Z,15.40
2023-04-18T06:27:41.306Z,14.88
2023-04-18T06:30:09.022Z,15.43
2023-04-18T06:32:36.331Z,10.85
2023-04-18T06:35:03.857Z,14.43
2023-04-18T06:37:32.787Z,14.48
2023-04-18T06:40:00.222Z,14.90
2023-04-18T06:42:27.463Z,14.65
2023-04-18T06:44:55.158Z,15.80
2023-04-18T06:47:24.243Z,15.65
2023-04-18T06:49:51.448Z,15.07
2023-04-18T06:52:18.600Z,15.20
2023-04-18T06:54:45.751Z,14.27
2023-04-18T06:57:12.976Z,15.15
2023-04-18T06:59:41.485Z,16.80
2023-04-18T07:02:08.733Z,16.60
2023-04-18T07:04:36.062Z,17.70
2023-04-18T07:07:05.241Z,17.48
2023-04-18T07:09:32.673Z,16.60
2023-04-18T07:11:59.867Z,16.13
2023-04-18T07:14:27.448Z,16.27
2023-04-18T07:16:54.653Z,15.07
2023-04-18T07:19:21.952Z,12.77
2023-04-18T07:21:49.158Z,11.90
2023-04-18T07:24:16.626Z,11.95
2023-04-18T07:26:44.118Z,11.93
2023-04-18T07:29:11.231Z,14.05
2023-04-18T07:31:38.364Z,12.95
2023-04-18T07:34:05.874Z,13.82
2023-04-18T07:36:32.999Z,14.02
2023-04-18T07:39:02.154Z,14.32
2023-04-18T07:41:29.613Z,11.48
2023-04-18T07:43:56.890Z,11.00
2023-04-18T07:46:24.218Z,9.75
2023-04-18T07:48:51.431Z,10.20
2023-04-18T07:51:18.690Z,9.57
2023-04-18T07:53:45.877Z,10.60
2023-04-18T07:56:14.569Z,10.07
2023-04-18T07:58:41.848Z,10.07
2023-04-18T08:01:13.627Z,9.70
2023-04-18T08:03:41.901Z,10.23
2023-04-18T08:06:09.996Z,12.10
2023-04-18T08:08:37.386Z,10.05
2023-04-18T08:11:04.603Z,11.68
2023-04-18T08:13:32.057Z,10.20
2023-04-18T08:16:00.042Z,10.90
2023-04-18T08:18:27.374Z,10.98
2023-04-18T08:20:54.598Z,12.18
2023-04-18T08:23:21.898Z,13.15
2023-04-18T08:25:49.425Z,10.13
2023-04-18T08:28:16.637Z,8.95
2023-04-18T08:30:44.200Z,9.52
2023-04-18T08:33:11.419Z,10.70
2023-04-18T08:35:38.637Z,10.13
2023-04-18T08:38:05.876Z,9.70
2023-04-18T08:40:33.415Z,10.40
2023-04-18T08:43:04.955Z,13.32
2023-04-18T08:45:33.534Z,10.00
2023-04-18T08:48:03.263Z,10.75
2023-04-18T08:50:32.077Z,11.10
2023-04-18T08:53:01.554Z,9.23
2023-04-18T08:55:29.041Z,9.20
2023-04-18T08:57:56.588Z,12.05
2023-04-18T09:00:23.991Z,10.05
2023-04-18T09:02:56.860Z,9.38
2023-04-18T09:05:27.619Z,10.55
2023-04-18T09:07:56.336Z,10.30
2023-04-18T09:10:33.521Z,11.00
2023-04-18T09:13:03.401Z,11.68
2023-04-18T09:15:31.322Z,10.68
2023-04-18T09:18:02.441Z,11.65
2023-04-18T09:20:38.294Z,11.40
2023-04-18T09:23:11.000Z,10.98
2023-04-18T09:25:44.438Z,10.18
2023-04-18T09:28:22.684Z,10.35
2023-04-18T09:30:54.639Z,10.52
2023-04-18T09:33:29.595Z,11.07
2023-04-18T09:35:57.381Z,11.02
2023-04-18T09:38:43.508Z,10.38
2023-04-18T09:41:12.676Z,10.70
2023-04-18T09:43:39.952Z,10.63
2023-04-18T09:46:08.922Z,11.18
2023-04-18T09:48:36.591Z,11.38
2023-04-18T09:51:09.438Z,9.98
2023-04-18T09:53:41.024Z,11.00
2023-04-18T09:56:17.156Z,11.68
2023-04-18T09:58:47.590Z,8.88
2023-04-18T10:01:15.321Z,9.73
2023-04-18T10:03:47.446Z,8.90
2023-04-18T10:06:18.319Z,9.23
2023-04-18T10:08:47.970Z,9.00
2023-04-18T10:11:15.836Z,9.77
2023-04-18T10:13:47.925Z,9.15
2023-04-18T10:16:16.995Z,8.85
2023-04-18T10:18:44.493Z,10.43
2023-04-18T10:21:11.890Z,9.98
2023-04-18T10:23:39.960Z,9.25
2023-04-18T10:26:08.588Z,9.32
2023-04-18T10:28:59.118Z,8.82
2023-04-18T10:31:27.928Z,9.30
2023-04-18T10:36:30.312Z,6.70
2023-04-18T10:39:05.898Z,6.70
2023-04-18T10:41:34.380Z,9.68
2023-04-18T10:44:08.727Z,10.48
2023-04-18T10:46:40.893Z,8.95
2023-04-18T10:49:23.919Z,9.35
2023-04-18T10:52:03.523Z,8.45
2023-04-18T10:54:37.651Z,9.13
2023-04-18T10:57:07.717Z,8.80
2023-04-18T10:59:38.826Z,10.38
2023-04-18T11:02:25.688Z,9.52
2023-04-18T11:04:55.601Z,7.97
2023-04-18T11:07:34.077Z,9.35
2023-04-18T11:10:02.113Z,10.38
2023-04-18T11:12:37.063Z,9.18
2023-04-18T11:15:22.973Z,8.30
2023-04-18T11:17:57.804Z,9.20
2023-04-18T11:20:25.080Z,9.85
2023-04-18T11:22:53.708Z,10.15
2023-04-18T11:25:27.645Z,8.90
2023-04-18T11:27:55.908Z,9.75
2023-04-18T11:30:23.354Z,8.55
2023-04-18T11:32:51.768Z,10.05
2023-04-18T11:35:19.162Z,8.82
2023-04-18T11:37:46.355Z,9.30
2023-04-18T11:40:14.431Z,6.90
2023-04-18T11:42:42.182Z,9.15
2023-04-18T11:45:14.125Z,9.40
2023-04-18T11:47:43.073Z,9.18
2023-04-18T11:50:13.111Z,6.65
2023-04-18T11:52:42.615Z,6.40
2023-04-18T11:55:17.963Z,9.40
2023-04-18T11:57:58.929Z,9.68
2023-04-18T12:00:40.245Z,8.43
2023-04-18T12:03:16.312Z,8.63
2023-04-18T12:05:45.874Z,9.90
2023-04-18T12:08:20.730Z,10.60
2023-04-18T12:10:52.395Z,10.50
2023-04-18T12:13:25.041Z,10.65
2023-04-18T12:15:53.822Z,9.95
2023-04-18T12:18:21.615Z,10.60
2023-04-18T12:20:52.515Z,10.13
2023-04-18T12:23:29.925Z,9.52
2023-04-18T12:26:04.997Z,10.38
2023-04-18T12:28:32.928Z,9.73
2023-04-18T12:31:00.836Z,9.52
2023-04-18T12:33:28.318Z,10.05
2023-04-18T12:35:56.211Z,9.25
2023-04-18T12:38:24.426Z,9.35
2023-04-18T12:40:52.561Z,9.52
2023-04-18T12:43:20.262Z,10.77
2023-04-18T12:45:47.557Z,11.32
2023-04-18T12:48:14.939Z,5.25
2023-04-18T12:50:42.199Z,10.68
2023-04-18T12:53:09.480Z,10.05
2023-04-18T12:55:36.991Z,10.57
2023-04-18T12:58:04.150Z,11.50
2023-04-18T13:00:33.044Z,10.48
2023-04-18T13:03:00.939Z,10.52
2023-04-18T13:05:32.804Z,10.10
2023-04-18T13:12:58.916Z,9.98
2023-04-18T13:15:27.629Z,8.82
2023-04-18T13:17:56.766Z,10.20
2023-04-18T13:20:24.521Z,10.60
2023-04-18T13:22:51.647Z,11.23
2023-04-18T13:25:18.986Z,9.52
2023-04-18T13:27:47.247Z,9.82
2023-04-18T13:30:14.559Z,10.07
2023-04-18T13:32:44.057Z,10.07
2023-04-18T13:35:11.778Z,8.27
2023-04-18T13:37:39.784Z,9.02
2023-04-18T13:40:08.032Z,8.18
2023-04-18T13:42:37.048Z,9.07
2023-04-18T13:45:04.571Z,9.30
2023-04-18T13:47:33.796Z,10.20
2023-04-18T13:50:01.155Z,9.80
2023-04-18T13:52:31.459Z,9.65
2023-04-18T13:54:58.762Z,8.80
2023-04-18T13:57:26.050Z,7.45
2023-04-18T13:59:53.275Z,8.02
2023-04-18T14:02:20.723Z,8.30
2023-04-18T14:04:48.634Z,8.70
2023-04-18T14:07:16.634Z,9.43
2023-04-18T14:09:45.144Z,6.65
2023-04-18T14:12:12.430Z,8.73
2023-04-18T14:14:39.565Z,8.30
2023-04-18T14:17:06.829Z,6.40
2023-04-18T14:19:34.966Z,8.80
2023-04-18T14:22:02.086Z,7.28
2023-04-18T14:24:29.256Z,7.47
2023-04-18T14:26:56.444Z,7.50
2023-04-18T14:29:23.610Z,7.30
2023-04-18T14:31:50.870Z,6.82
2023-04-18T14:34:18.002Z,7.80
2023-04-18T14:36:45.426Z,8.18
2023-04-18T14:39:13.298Z,6.40
2023-04-18T14:41:40.618Z,7.90
2023-04-18T14:44:07.747Z,6.88
2023-04-18T14:46:35.008Z,7.65
2023-04-18T14:49:02.138Z,8.07
2023-04-18T14:51:29.328Z,7.35
2023-04-18T14:53:56.629Z,7.82
2023-04-18T14:56:24.475Z,8.98
2023-04-18T14:58:51.664Z,7.90
2023-04-18T15:01:19.026Z,7.40
2023-04-18T15:03:46.407Z,8.05
2023-04-18T15:06:13.754Z,8.45
2023-04-18T15:08:41.298Z,8.15
2023-04-18T15:11:08.776Z,8.30
2023-04-18T15:13:36.442Z,8.25
2023-04-18T15:16:03.811Z,10.02
2023-04-18T15:18:31.014Z,7.57
2023-04-18T15:21:01.396Z,7.68
2023-04-18T15:23:28.624Z,8.82
2023-04-18T15:25:56.588Z,9.30
2023-04-18T15:28:23.786Z,7.78
2023-04-18T15:30:51.040Z,8.77
2023-04-18T15:33:20.501Z,7.70
2023-04-18T15:35:48.093Z,8.23
2023-04-18T15:38:15.533Z,8.27
2023-04-18T15:40:43.686Z,7.60
2023-04-18T15:43:11.003Z,7.40
2023-04-18T15:45:38.333Z,8.32
2023-04-18T15:48:05.963Z,8.88
2023-04-18T15:50:33.978Z,7.65
2023-04-18T15:53:02.612Z,5.65
2023-04-18T15:55:30.186Z,8.35
2023-04-18T15:57:57.600Z,7.22
2023-04-18T16:00:25.153Z,8.32
2023-04-18T16:02:52.719Z,8.15
2023-04-18T16:05:20.302Z,6.90
2023-04-18T16:07:47.504Z,8.05
2023-04-18T16:10:15.422Z,7.43
2023-04-18T16:12:43.033Z,6.47
2023-04-18T16:15:10.853Z,8.02
2023-04-18T16:17:38.499Z,9.02
2023-04-18T16:20:08.279Z,9.40
2023-04-18T16:22:36.121Z,6.22
2023-04-18T16:25:04.517Z,7.75
2023-04-18T16:27:32.706Z,6.80
2023-04-18T16:29:59.994Z,5.70
2023-04-18T16:32:27.484Z,8.52
2023-04-18T16:34:54.843Z,7.85
2023-04-18T16:37:22.234Z,7.28
2023-04-18T16:39:49.496Z,6.38
2023-04-18T16:42:16.699Z,8.00
2023-04-18T16:44:45.396Z,8.73
2023-04-18T16:47:31.473Z,9.63
2023-04-18T16:49:58.812Z,7.93
2023-04-18T16:52:25.947Z,8.13
2023-04-18T16:54:53.207Z,8.98
2023-04-18T16:57:20.440Z,8.35
2023-04-18T16:59:47.587Z,8.73
2023-04-18T17:02:14.875Z,8.43
2023-04-18T17:04:42.307Z,8.00
2023-04-18T17:07:09.488Z,9.00
2023-04-18T17:09:36.685Z,8.50
2023-04-18T17:12:04.015Z,8.80
2023-04-18T17:14:31.124Z,9.90
2023-04-18T17:16:58.250Z,9.13
2023-04-18T17:19:26.357Z,8.35
2023-04-18T17:21:53.655Z,9.02
2023-04-18T17:24:22.633Z,8.00
2023-04-18T17:26:50.008Z,9.35
2023-04-18T17:29:18.467Z,9.50
2023-04-18T17:31:45.747Z,9.65
2023-04-18T17:34:13.040Z,9.30
2023-04-18T17:36:40.323Z,8.35
2023-04-18T17:39:07.510Z,8.15
2023-04-18T17:41:38.613Z,8.77
2023-04-18T17:44:07.720Z,7.68
2023-04-18T17:46:35.246Z,9.15
2023-04-18T17:49:02.648Z,7.00
2023-04-18T17:51:29.901Z,8.85
2023-04-18T17:53:57.377Z,8.65
2023-04-18T17:56:24.755Z,8.05
2023-04-18T17:58:52.937Z,8.07
2023-04-18T18:01:22.172Z,9.85
2023-04-18T18:03:49.872Z,8.52
2023-04-18T18:06:17.278Z,7.63
2023-04-18T18:08:44.520Z,8.75
2023-04-18T18:11:11.909Z,8.77
2023-04-18T18:13:39.272Z,9.23
2023-04-18T18:16:07.704Z,8.77
2023-04-18T18:18:35.414Z,8.75
2023-04-18T18:21:02.683Z,8.50
2023-04-18T18:23:29.877Z,8.98
2023-04-18T18:25:57.127Z,9.10
2023-04-18T18:28:24.396Z,7.35
2023-04-18T18:30:51.753Z,8.60
2023-04-18T18:33:19.181Z,9.02
2023-04-18T18:35:46.453Z,7.70
2023-04-18T18:38:14.065Z,7.45
2023-04-18T18:40:41.225Z,8.30
2023-04-18T18:43:08.412Z,7.40
2023-04-18T18:45:35.658Z,7.32
2023-04-18T18:48:04.023Z,7.40
2023-04-18T18:50:31.396Z,8.32
2023-04-18T18:52:59.637Z,7.70
2023-04-18T18:55:26.883Z,6.93
2023-04-18T18:57:54.128Z,7.38
2023-04-18T19:00:21.565Z,4.97
2023-04-18T19:02:48.817Z,7.35
2023-04-18T19:05:17.463Z,6.53
2023-04-18T19:07:44.736Z,6.45
2023-04-18T19:10:11.995Z,6.70
2023-04-18T19:12:39.270Z,7.63
2023-04-18T19:15:07.032Z,7.25
2023-04-18T19:17:35.938Z,7.18
2023-04-18T19:20:03.605Z,6.90
2023-04-18T19:22:33.333Z,6.63
2023-04-18T19:25:00.985Z,6.72
2023-04-18T19:27:28.453Z,7.40
2023-04-18T19:29:55.843Z,6.43
2023-04-18T19:32:23.145Z,6.32
2023-04-18T19:34:51.552Z,7.97
2023-04-18T19:37:18.715Z,7.03
2023-04-18T19:39:45.836Z,6.82
2023-04-18T19:42:13.047Z,6.65
2023-04-18T19:44:40.309Z,7.32
2023-04-18T19:47:07.510Z,6.60
2023-04-18T19:49:35.583Z,7.45
2023-04-18T19:52:02.741Z,7.18
2023-04-18T19:54:33.435Z,8.23
2023-04-18T19:59:28.540Z,7.05
2023-04-18T20:01:57.221Z,7.90
2023-04-18T20:04:26.057Z,8.68
2023-04-18T20:06:54.106Z,6.60
2023-04-18T20:09:21.449Z,7.32
2023-04-18T20:11:49.103Z,6.90
2023-04-18T20:14:16.670Z,6.25
2023-04-18T20:16:45.901Z,5.53
2023-04-18T20:19:13.997Z,5.70
2023-04-18T20:21:41.492Z,6.40
2023-04-18T20:24:09.792Z,7.20
2023-04-18T20:26:37.269Z,6.78
2023-04-18T20:29:04.519Z,7.20
2023-04-18T20:31:31.639Z,6.95
2023-04-18T20:33:58.968Z,6.65
2023-04-18T20:36:26.148Z,6.90
2023-04-18T20:38:53.273Z,6.97
2023-04-18T20:41:24.263Z,6.75
2023-04-18T20:43:53.822Z,6.15
2023-04-18T20:46:24.517Z,6.22
2023-04-18T20:48:52.361Z,7.30
2023-04-18T20:51:19.542Z,7.85
2023-04-18T20:53:46.920Z,8.02
2023-04-18T20:56:14.042Z,8.27
2023-04-18T20:58:42.064Z,8.02
2023-04-18T21:01:09.269Z,8.13
2023-04-18T21:03:36.682Z,7.10
2023-04-18T21:06:04.008Z,7.20
2023-04-18T21:08:31.853Z,6.82
2023-04-18T21:10:59.015Z,7.70
2023-04-18T21:13:26.157Z,7.35
2023-04-18T21:15:53.393Z,7.68
2023-04-18T21:18:20.951Z,7.03
2023-04-18T21:20:48.149Z,6.80
2023-04-18T21:23:15.484Z,6.95
2023-04-18T21:25:42.600Z,6.82
2023-04-18T21:28:09.723Z,7.28
2023-04-18T21:30:36.916Z,5.65
2023-04-18T21:33:04.544Z,6.18
2023-04-18T21:35:32.085Z,6.63
2023-04-18T21:37:59.557Z,6.80
2023-04-18T21:40:26.996Z,6.43
2023-04-18T21:42:54.245Z,6.10
2023-04-18T21:45:21.625Z,6.40
2023-04-18T21:47:49.750Z,6.60
2023-04-18T21:50:17.034Z,7.18
2023-04-18T21:52:44.207Z,7.72
2023-04-18T21:55:11.462Z,8.45
2023-04-18T21:57:38.656Z,9.23
2023-04-18T22:00:09.264Z,9.18
2023-04-18T22:02:37.797Z,8.48
2023-04-18T22:05:05.750Z,9.55
2023-04-18T22:07:34.185Z,8.73
2023-04-18T22:10:03.695Z,8.50
2023-04-18T22:12:32.313Z,8.43
2023-04-18T22:14:59.480Z,7.70
2023-04-18T22:17:26.654Z,7.53
2023-04-18T22:19:54.869Z,6.97
2023-04-18T22:22:22.052Z,7.50
2023-04-18T22:24:49.264Z,6.70
2023-04-18T22:27:16.470Z,6.40
2023-04-18T22:29:43.567Z,6.25
2023-04-18T22:32:10.755Z,6.18
2023-04-18T22:34:37.892Z,6.05
2023-04-18T22:37:05.086Z,6.20
2023-04-18T22:39:32.324Z,6.07
2023-04-18T22:41:59.454Z,5.82
2023-04-18T22:44:26.660Z,6.65
2023-04-18T22:46:54.845Z,6.45
2023-04-18T22:49:22.432Z,6.38
2023-04-18T22:51:49.780Z,6.80
2023-04-18T22:54:17.138Z,6.07
2023-04-18T22:56:44.530Z,5.97
2023-04-18T22:59:11.736Z,6.28
2023-04-18T23:01:38.906Z,6.40
2023-04-18T23:04:06.682Z,6.65
2023-04-18T23:06:34.113Z,6.57
2023-04-18T23:09:01.251Z,7.38
2023-04-18T23:11:28.632Z,7.35
2023-04-18T23:13:55.817Z,6.65
2023-04-18T23:16:23.269Z,6.63
2023-04-18T23:18:50.473Z,6.63
2023-04-18T23:21:18.110Z,6.70
2023-04-18T23:23:45.292Z,7.10
2023-04-18T23:26:16.187Z,6.60
2023-04-18T23:28:43.732Z,6.60
2023-04-18T23:31:11.177Z,7.15
2023-04-18T23:33:38.547Z,6.22
2023-04-18T23:36:06.634Z,6.30
2023-04-18T23:38:33.864Z,6.20
2023-04-18T23:41:01.031Z,6.90
2023-04-18T23:43:28.129Z,6.35
2023-04-18T23:45:55.292Z,6.70
2023-04-18T23:48:22.675Z,5.80
2023-04-18T23:50:52.246Z,7.15
2023-04-18T23:53:21.146Z,6.38
2023-04-18T23:55:50.670Z,6.50
2023-04-18T23:58:18.349Z,7.05
